Kezdőlap
METAR-TAF:

METAR-TAF

Repülőterek :

De Queen, Arkansas, Amerikai Egyesült Államok

földrajzi szélesség: 34-02-49N, földrajzi hosszúság: 094-23-58W, magasság: 108 m

Jelenlegi meteorológiai megfigyelések

A jelentés 19 perccel ezelõtt készült, 10:58 UTC
Szélcsend
Hőmérséklet 21°C
Páratartalom 100%
Légköri nyomás 1014 hPa
Látótávolság: 1.2 km
Párásság

METAR: KDEQ 151058Z AUTO 00000KT 3/4SM BR VV003 21/21 A2995 RMK AO2 T02060206

Idő: 06:17 (11:17 UTC)


TAF: hiányzik

Meteorológiai megfigyelések és előrejelzések több, mint 4000 repülőtéren (METAR és TAF jelentéseket).

A térképen piros és sárga pontok jelzik az elérhető meteorológiai állomásokat.

Mozgassa az egeret a pont fölött, hogy megjelenjen az állomás neve.

Azután kattintson az időjárási megfigyelések és előrejelzések megtekintéséhez.

A térkép megváltoztatása: kattintson a fekete keresztel jelölt zöld gombra ráközelítéshez, a vonallal jelölt zöld gombra távolításhoz, vagy a zöld nyilakra a szomszédos térképek eléréséhez.


METAR-TAF: